Time;durP1;ratioP1;P1;durP2;ratioP2;P2;SDS_P1;SDS_P2;PMS_P1;PMS_P2;Temp;Humidity;BMP_temperature;BMP_pressure;BME280_temperature;BME280_humidity;BME280_pressure;Samples;Min_cycle;Max_cycle;Signal;HPM_P1;HPM_P2
2022/01/16 00:01:21;;;;;;;15.47;7.00;;;3.90;99.90;;;;;;5051281;28;20265;-72
2022/01/16 00:06:31;;;;;;;17.27;8.63;;;3.80;99.90;;;;;;5061802;28;20249;-72
2022/01/16 00:08:56;;;;;;;14.40;7.77;;;3.90;99.90;;;;;;5055364;28;20195;-72
2022/01/16 00:11:23;;;;;;;16.80;7.57;;;3.80;99.90;;;;;;5065448;28;20196;-72
2022/01/16 00:13:49;;;;;;;17.23;7.77;;;3.90;99.90;;;;;;5061962;28;20623;-70
2022/01/16 00:16:16;;;;;;;19.30;7.87;;;3.90;99.90;;;;;;5060359;28;20190;-70
2022/01/16 00:18:52;;;;;;;17.10;9.00;;;3.80;99.90;;;;;;5058680;28;20771;-70
2022/01/16 00:21:39;;;;;;;17.93;9.30;;;3.80;99.90;;;;;;5049355;28;20225;-70
2022/01/16 00:24:06;;;;;;;16.10;8.47;;;3.80;99.90;;;;;;5056040;28;20284;-70
2022/01/16 00:26:32;;;;;;;21.50;9.17;;;3.80;99.90;;;;;;5054206;28;20619;-69
2022/01/16 00:28:58;;;;;;;17.17;8.93;;;3.90;99.90;;;;;;5060969;28;20198;-71
2022/01/16 00:31:24;;;;;;;22.67;8.37;;;3.90;99.90;;;;;;5052761;28;20687;-70
2022/01/16 00:33:50;;;;;;;17.43;8.60;;;3.90;99.90;;;;;;5065502;28;20650;-71
2022/01/16 00:36:18;;;;;;;15.13;8.40;;;3.90;99.90;;;;;;5053883;28;20233;-73
2022/01/16 00:38:45;;;;;;;15.37;9.07;;;3.90;99.90;;;;;;5065377;28;20197;-74
2022/01/16 00:41:19;;;;;;;19.93;8.73;;;3.80;99.90;;;;;;5054276;28;20695;-70
2022/01/16 00:43:45;;;;;;;17.30;8.97;;;3.90;99.90;;;;;;5056421;28;20186;-70
2022/01/16 00:46:10;;;;;;;26.27;8.60;;;3.80;99.90;;;;;;5047217;28;20206;-71
2022/01/16 00:48:36;;;;;;;11.80;7.50;;;3.70;99.90;;;;;;5057008;28;20198;-69
2022/01/16 00:51:03;;;;;;;21.77;9.03;;;3.70;99.90;;;;;;5053754;28;20248;-71
2022/01/16 00:53:28;;;;;;;13.67;8.20;;;3.70;99.90;;;;;;5058665;28;20194;-70
2022/01/16 00:55:53;;;;;;;20.20;8.13;;;3.70;99.90;;;;;;5053717;28;20218;-70
2022/01/16 00:58:19;;;;;;;22.13;8.63;;;3.70;99.90;;;;;;5058002;28;20693;-71
2022/01/16 01:00:45;;;;;;;15.63;8.20;;;3.70;99.90;;;;;;5054900;28;20205;-71
2022/01/16 01:03:11;;;;;;;17.10;8.10;;;3.70;99.90;;;;;;5053295;28;20199;-69
2022/01/16 01:05:37;;;;;;;15.17;8.60;;;3.60;99.90;;;;;;5053638;28;20207;-69
2022/01/16 01:08:04;;;;;;;16.00;8.80;;;3.60;99.90;;;;;;5059461;28;20201;-70
2022/01/16 01:10:33;;;;;;;13.77;7.70;;;3.70;99.90;;;;;;5055010;28;20213;-69
2022/01/16 01:13:09;;;;;;;16.27;9.57;;;3.70;99.90;;;;;;5056067;28;20243;-68
2022/01/16 01:15:50;;;;;;;18.77;8.30;;;3.70;99.90;;;;;;5049989;28;20221;-67
2022/01/16 01:18:17;;;;;;;16.73;7.57;;;3.60;99.90;;;;;;5054019;28;20209;-67
2022/01/16 01:20:46;;;;;;;20.90;8.57;;;3.60;99.90;;;;;;5050915;28;20272;-68
2022/01/16 01:23:12;;;;;;;21.60;7.87;;;3.60;99.90;;;;;;5056258;28;20177;-70
2022/01/16 01:25:38;;;;;;;17.43;7.47;;;3.60;99.90;;;;;;5051884;28;20692;-71
2022/01/16 01:28:07;;;;;;;14.93;7.73;;;3.60;99.90;;;;;;5054949;28;20197;-69
2022/01/16 01:30:33;;;;;;;14.70;6.73;;;3.60;99.90;;;;;;5051678;28;20198;-69
2022/01/16 01:32:59;;;;;;;19.83;8.60;;;3.50;99.90;;;;;;5056506;28;20629;-61
2022/01/16 01:35:25;;;;;;;14.83;7.77;;;3.40;99.90;;;;;;5050911;28;20259;-61
2022/01/16 01:37:51;;;;;;;13.53;6.40;;;3.40;99.90;;;;;;5057378;28;20213;-63
2022/01/16 01:40:24;;;;;;;17.20;7.73;;;3.40;99.90;;;;;;5050014;28;20943;-62
2022/01/16 01:51:15;;;;;;;18.80;7.10;;;3.40;99.90;;;;;;5050174;28;20694;-62
2022/01/16 01:53:42;;;;;;;16.87;6.50;;;3.40;99.90;;;;;;5064441;28;20206;-62
2022/01/16 01:56:10;;;;;;;20.27;6.63;;;3.40;99.90;;;;;;5049382;28;20206;-63
2022/01/16 01:58:36;;;;;;;11.43;6.63;;;3.30;99.90;;;;;;5064582;28;20277;-62
2022/01/16 02:01:02;;;;;;;13.17;6.60;;;3.40;99.90;;;;;;5048024;28;20306;-63
2022/01/16 02:06:05;;;;;;;10.83;5.97;;;3.40;99.90;;;;;;5047922;28;20194;-64
2022/01/16 02:08:31;;;;;;;18.20;6.90;;;3.40;99.90;;;;;;5063759;28;20221;-62
2022/01/16 02:10:59;;;;;;;13.60;6.17;;;3.40;99.90;;;;;;5055373;28;20198;-62
2022/01/16 02:13:30;;;;;;;17.27;6.10;;;3.30;99.90;;;;;;5059827;28;20256;-63
2022/01/16 02:30:12;;;;;;;17.57;7.10;;;3.10;99.90;;;;;;5043258;28;20248;-62
2022/01/16 02:35:12;;;;;;;19.40;7.03;;;3.20;99.90;;;;;;5030292;28;20870;-62
2022/01/16 02:37:37;;;;;;;11.33;5.93;;;3.20;99.90;;;;;;5066407;28;20217;-62
2022/01/16 02:40:12;;;;;;;15.67;6.20;;;3.10;99.90;;;;;;5065695;28;20661;-63
2022/01/16 02:42:41;;;;;;;13.07;6.80;;;3.10;99.90;;;;;;5056645;28;20195;-63
2022/01/16 02:45:15;;;;;;;15.23;6.43;;;3.10;99.90;;;;;;5065894;28;20194;-62
2022/01/16 02:47:41;;;;;;;13.67;6.33;;;3.10;99.90;;;;;;5057575;28;20274;-63
2022/01/16 02:50:07;;;;;;;13.73;6.67;;;3.10;99.90;;;;;;5065127;28;20300;-62
2022/01/16 02:52:32;;;;;;;17.97;6.57;;;3.00;99.90;;;;;;5061022;28;20217;-63
2022/01/16 02:55:00;;;;;;;16.23;6.33;;;3.00;99.90;;;;;;5065014;28;20214;-63
2022/01/16 02:57:26;;;;;;;10.10;5.23;;;3.00;99.90;;;;;;5059176;28;20193;-63
2022/01/16 02:59:54;;;;;;;16.83;6.57;;;2.90;99.90;;;;;;5061027;28;20575;-62
2022/01/16 03:02:21;;;;;;;19.50;7.57;;;2.90;99.90;;;;;;5063342;28;20559;-63
2022/01/16 03:04:47;;;;;;;18.70;6.80;;;2.80;99.90;;;;;;5061305;28;20206;-63
2022/01/16 03:07:12;;;;;;;14.83;6.87;;;2.70;99.90;;;;;;5062500;28;20182;-62
2022/01/16 03:12:12;;;;;;;15.40;6.60;;;2.70;99.90;;;;;;5058314;28;20324;-63
2022/01/16 03:14:38;;;;;;;20.97;7.40;;;2.70;99.90;;;;;;5062519;28;20721;-63
2022/01/16 03:17:04;;;;;;;15.10;6.57;;;2.70;99.90;;;;;;5047346;28;20633;-62
2022/01/16 03:22:14;;;;;;;16.13;7.03;;;2.60;99.90;;;;;;5059031;28;20291;-62
2022/01/16 03:24:43;;;;;;;16.47;6.33;;;2.60;99.90;;;;;;5066426;28;20761;-62
2022/01/16 03:27:19;;;;;;;16.10;5.90;;;2.50;99.90;;;;;;5053336;28;20355;-62
2022/01/16 03:29:52;;;;;;;26.93;7.40;;;2.40;99.90;;;;;;5067183;28;20203;-62
2022/01/16 03:32:20;;;;;;;19.93;6.53;;;2.40;99.90;;;;;;5057751;28;20202;-62
2022/01/16 03:34:45;;;;;;;12.97;5.40;;;2.40;99.90;;;;;;5048027;28;20228;-62
2022/01/16 03:37:11;;;;;;;16.27;7.20;;;2.40;99.90;;;;;;5061052;28;20278;-61
2022/01/16 03:39:37;;;;;;;11.47;4.90;;;2.30;99.90;;;;;;5046576;28;20181;-62
2022/01/16 03:42:03;;;;;;;18.13;6.07;;;2.20;99.90;;;;;;5061677;28;20231;-62
2022/01/16 03:44:29;;;;;;;19.60;6.53;;;2.20;99.90;;;;;;5055641;28;20553;-62
2022/01/16 03:46:55;;;;;;;19.03;6.60;;;2.20;99.90;;;;;;5063668;28;20201;-62
2022/01/16 03:49:25;;;;;;;9.77;4.73;;;2.20;99.90;;;;;;5057476;28;20736;-62
2022/01/16 03:51:52;;;;;;;16.20;5.53;;;2.20;99.90;;;;;;5058103;28;20209;-62
2022/01/16 03:54:21;;;;;;;12.70;5.10;;;2.10;99.90;;;;;;5063841;28;20303;-61
2022/01/16 03:56:47;;;;;;;17.17;4.73;;;2.10;99.90;;;;;;5064367;28;20343;-62
2022/01/16 03:59:13;;;;;;;23.07;5.13;;;2.10;99.90;;;;;;5053117;28;20284;-61
2022/01/16 04:01:39;;;;;;;19.93;6.20;;;2.10;99.90;;;;;;5066881;28;20218;-62
2022/01/16 04:04:05;;;;;;;8.20;4.83;;;2.00;99.90;;;;;;5045262;28;20680;-62
2022/01/16 04:06:31;;;;;;;13.70;4.73;;;2.00;99.90;;;;;;5065812;28;20221;-62
2022/01/16 04:08:57;;;;;;;10.67;5.60;;;2.00;99.90;;;;;;5056197;28;20214;-62
2022/01/16 04:11:25;;;;;;;18.70;6.50;;;2.00;99.90;;;;;;5065442;28;20202;-62
2022/01/16 04:13:53;;;;;;;14.87;6.07;;;2.00;99.90;;;;;;5054603;28;20213;-62
2022/01/16 04:16:21;;;;;;;17.17;5.37;;;1.90;99.90;;;;;;5066035;28;20248;-62
2022/01/16 04:18:51;;;;;;;13.10;4.97;;;1.90;99.90;;;;;;5050585;28;20901;-63
2022/01/16 04:21:22;;;;;;;14.57;6.57;;;1.80;99.90;;;;;;5065584;28;20232;-64
2022/01/16 04:23:48;;;;;;;17.33;5.53;;;1.80;99.90;;;;;;5057204;28;20491;-63
2022/01/16 04:26:14;;;;;;;18.80;5.00;;;1.80;99.90;;;;;;5065482;28;20866;-63
2022/01/16 04:28:41;;;;;;;21.20;5.37;;;1.80;99.90;;;;;;5048419;28;20210;-63
2022/01/16 04:31:07;;;;;;;12.27;5.00;;;1.70;99.90;;;;;;5065321;28;20213;-63
2022/01/16 04:33:32;;;;;;;17.73;4.97;;;1.70;99.90;;;;;;5055697;28;20262;-63
2022/01/16 04:35:58;;;;;;;14.33;4.47;;;1.70;99.90;;;;;;5061165;28;20223;-63
2022/01/16 04:38:23;;;;;;;14.93;5.33;;;1.70;99.90;;;;;;5053491;28;20296;-63
2022/01/16 04:43:51;;;;;;;26.73;5.63;;;1.70;99.90;;;;;;5044912;28;20546;-63
2022/01/16 04:46:19;;;;;;;16.10;4.80;;;1.80;99.90;;;;;;5052338;28;20745;-63
2022/01/16 04:48:44;;;;;;;14.77;5.23;;;1.80;99.90;;;;;;5053690;28;20683;-63
2022/01/16 04:51:11;;;;;;;13.93;4.70;;;1.70;99.90;;;;;;5063510;28;20188;-61
2022/01/16 04:53:36;;;;;;;24.63;5.40;;;1.70;99.90;;;;;;5049639;28;20201;-62
2022/01/16 04:56:02;;;;;;;13.53;4.70;;;1.70;99.90;;;;;;5055345;28;20214;-62
2022/01/16 04:58:28;;;;;;;13.53;4.83;;;1.70;99.90;;;;;;5048991;28;20203;-61
2022/01/16 05:00:54;;;;;;;18.53;7.13;;;1.70;99.90;;;;;;5064726;28;20253;-62
2022/01/16 05:03:21;;;;;;;10.03;4.53;;;1.70;99.90;;;;;;5050605;28;20198;-62
2022/01/16 05:05:46;;;;;;;21.80;4.50;;;1.60;99.90;;;;;;5061882;28;20412;-62
2022/01/16 05:08:12;;;;;;;13.40;5.17;;;1.60;99.90;;;;;;5052716;28;20210;-63
2022/01/16 05:10:37;;;;;;;15.43;5.40;;;1.60;99.90;;;;;;5065289;28;20190;-62
2022/01/16 05:18:32;;;;;;;17.00;5.73;;;1.60;99.90;;;;;;5044165;28;20230;-62
2022/01/16 05:20:58;;;;;;;15.13;6.83;;;1.60;99.90;;;;;;5064203;28;20559;-63
2022/01/16 05:23:24;;;;;;;9.77;5.27;;;1.60;99.90;;;;;;5059422;28;20201;-63
2022/01/16 05:25:49;;;;;;;14.10;5.33;;;1.70;99.90;;;;;;5064270;28;20204;-61
2022/01/16 05:28:15;;;;;;;20.70;7.37;;;1.60;99.90;;;;;;5050526;28;20208;-62
2022/01/16 05:30:40;;;;;;;18.37;6.53;;;1.60;99.90;;;;;;5063924;28;20297;-62
2022/01/16 05:33:08;;;;;;;22.07;6.17;;;1.60;99.90;;;;;;5051962;28;20563;-62
2022/01/16 05:35:33;;;;;;;22.03;6.93;;;1.50;99.90;;;;;;5057710;28;20287;-62
2022/01/16 05:37:58;;;;;;;13.23;5.30;;;1.60;99.90;;;;;;5061618;28;20777;-62
2022/01/16 05:40:24;;;;;;;16.77;6.00;;;1.60;99.90;;;;;;5064778;28;20196;-63
2022/01/16 05:42:49;;;;;;;14.27;6.53;;;1.60;99.90;;;;;;5053849;28;20943;-63
2022/01/16 05:45:15;;;;;;;19.83;8.47;;;1.60;99.90;;;;;;5063815;28;20192;-62
2022/01/16 05:47:40;;;;;;;16.80;7.00;;;1.60;99.90;;;;;;5062295;28;20200;-63
2022/01/16 05:50:06;;;;;;;13.97;6.07;;;1.50;99.90;;;;;;5051033;28;20827;-62
2022/01/16 05:52:32;;;;;;;14.43;6.10;;;1.50;99.90;;;;;;5055779;28;20251;-62
2022/01/16 05:54:57;;;;;;;10.57;5.27;;;1.40;99.90;;;;;;5052729;28;20205;-63
2022/01/16 05:57:23;;;;;;;18.37;7.53;;;1.50;99.90;;;;;;5056594;28;20704;-63
2022/01/16 05:59:48;;;;;;;20.10;8.97;;;1.60;99.90;;;;;;5053379;28;20210;-63
2022/01/16 06:02:14;;;;;;;16.50;7.30;;;1.60;99.90;;;;;;5057861;28;20396;-63
2022/01/16 06:04:39;;;;;;;17.40;7.57;;;1.50;99.90;;;;;;5054742;28;20228;-62
2022/01/16 06:07:06;;;;;;;16.03;6.93;;;1.40;99.90;;;;;;5059662;28;20199;-62
2022/01/16 06:09:31;;;;;;;15.07;7.97;;;1.40;99.90;;;;;;5053389;28;20180;-62
2022/01/16 06:11:57;;;;;;;22.33;8.80;;;1.40;99.90;;;;;;5061533;28;20594;-62
2022/01/16 06:14:23;;;;;;;23.30;9.23;;;1.50;99.90;;;;;;5052034;28;20201;-62
2022/01/16 06:16:52;;;;;;;17.10;8.97;;;1.40;99.90;;;;;;5066241;28;20224;-62
2022/01/16 06:19:18;;;;;;;18.40;8.60;;;1.40;99.90;;;;;;5061520;28;20601;-63
2022/01/16 06:21:44;;;;;;;14.43;8.80;;;1.30;99.90;;;;;;5067337;28;20310;-63
2022/01/16 06:24:10;;;;;;;17.07;9.37;;;1.30;99.90;;;;;;5054252;28;20314;-63
2022/01/16 06:26:36;;;;;;;18.03;7.70;;;1.20;99.90;;;;;;5068073;28;20197;-63
2022/01/16 06:29:01;;;;;;;21.27;9.60;;;1.30;99.90;;;;;;5056448;28;20216;-62
2022/01/16 06:31:27;;;;;;;22.13;8.80;;;1.10;99.90;;;;;;5067958;28;20198;-62
2022/01/16 06:33:53;;;;;;;20.37;9.10;;;1.10;99.90;;;;;;5052518;28;20200;-62
2022/01/16 06:36:18;;;;;;;21.43;8.97;;;1.10;99.90;;;;;;5068000;28;20204;-63
2022/01/16 06:38:44;;;;;;;16.13;8.70;;;1.10;99.90;;;;;;5052124;28;20197;-62
2022/01/16 06:41:10;;;;;;;16.27;8.43;;;1.10;99.90;;;;;;5068053;28;20196;-63
2022/01/16 06:43:35;;;;;;;19.90;8.93;;;1.10;99.90;;;;;;5056685;28;20533;-63
2022/01/16 06:46:01;;;;;;;21.67;9.63;;;1.10;99.90;;;;;;5066876;28;20200;-63
2022/01/16 06:48:27;;;;;;;16.87;9.53;;;1.00;99.90;;;;;;5056838;28;20220;-63
2022/01/16 06:50:52;;;;;;;15.83;9.10;;;1.00;99.90;;;;;;5067279;28;20242;-63
2022/01/16 06:53:18;;;;;;;21.30;9.57;;;0.90;99.90;;;;;;5055666;28;20570;-63
2022/01/16 06:55:43;;;;;;;16.80;10.40;;;0.80;99.90;;;;;;5067486;28;20350;-64
2022/01/16 06:58:09;;;;;;;21.30;10.23;;;0.80;99.90;;;;;;5054132;28;21031;-62
2022/01/16 07:00:35;;;;;;;20.83;10.93;;;0.80;99.90;;;;;;5065367;28;20251;-62
2022/01/16 07:03:00;;;;;;;20.03;9.23;;;0.80;99.90;;;;;;5054677;28;20214;-63
2022/01/16 07:05:25;;;;;;;20.33;10.53;;;0.80;99.90;;;;;;5062494;28;20203;-63
2022/01/16 07:07:51;;;;;;;26.33;9.93;;;0.80;99.90;;;;;;5055808;28;20835;-63
2022/01/16 07:10:18;;;;;;;20.00;10.90;;;0.90;99.90;;;;;;5063610;28;20296;-62
2022/01/16 07:12:43;;;;;;;19.67;10.10;;;0.90;99.90;;;;;;5064527;28;20230;-61
2022/01/16 07:15:09;;;;;;;21.73;9.97;;;0.90;99.90;;;;;;5065548;28;20680;-63
2022/01/16 07:17:35;;;;;;;13.87;9.40;;;0.90;99.90;;;;;;5064605;28;20206;-64
2022/01/16 07:20:01;;;;;;;19.83;10.87;;;0.80;99.90;;;;;;5053581;28;20212;-62
2022/01/16 07:22:26;;;;;;;18.30;9.83;;;0.80;99.90;;;;;;5059683;28;20228;-62
2022/01/16 07:24:52;;;;;;;18.00;11.43;;;0.70;99.90;;;;;;5059966;28;20643;-65
2022/01/16 07:27:18;;;;;;;20.07;10.73;;;0.70;99.90;;;;;;5052975;28;20234;-67
2022/01/16 07:29:43;;;;;;;17.00;9.73;;;0.70;99.90;;;;;;5061410;28;20213;-67
2022/01/16 07:32:09;;;;;;;16.97;9.40;;;0.80;99.90;;;;;;5064548;28;20227;-65
2022/01/16 07:34:34;;;;;;;18.83;10.93;;;0.70;99.90;;;;;;5057705;28;20206;-65
2022/01/16 07:37:00;;;;;;;17.70;9.37;;;0.80;99.90;;;;;;5062304;28;20214;-67
2022/01/16 07:39:26;;;;;;;19.37;10.87;;;0.90;99.90;;;;;;5059371;28;20264;-66
2022/01/16 07:41:51;;;;;;;21.90;9.90;;;0.90;99.90;;;;;;5064236;28;20199;-66
2022/01/16 07:44:17;;;;;;;19.17;10.40;;;0.90;99.90;;;;;;5050587;28;20667;-66
2022/01/16 07:46:42;;;;;;;16.90;10.20;;;1.00;99.90;;;;;;5065606;28;20202;-66
2022/01/16 07:49:08;;;;;;;19.27;10.73;;;0.90;99.90;;;;;;5050609;28;20207;-65
2022/01/16 07:51:33;;;;;;;20.33;11.07;;;0.90;99.90;;;;;;5066503;28;20197;-66
2022/01/16 07:53:59;;;;;;;18.80;11.20;;;0.90;99.90;;;;;;5046499;28;20684;-65
2022/01/16 07:56:25;;;;;;;21.77;10.70;;;0.90;99.90;;;;;;5066196;28;20192;-66
2022/01/16 07:58:50;;;;;;;18.77;10.83;;;0.90;99.90;;;;;;5054690;28;20211;-66
2022/01/16 08:01:16;;;;;;;17.83;10.87;;;0.90;99.90;;;;;;5066480;28;20287;-67
2022/01/16 08:03:41;;;;;;;26.07;13.83;;;0.90;99.90;;;;;;5055423;28;20236;-64
2022/01/16 08:06:09;;;;;;;17.67;12.27;;;0.80;99.90;;;;;;5060053;28;20210;-66
2022/01/16 08:08:34;;;;;;;21.40;11.77;;;0.80;99.90;;;;;;5054125;28;20626;-66
2022/01/16 08:10:59;;;;;;;19.77;11.43;;;0.90;99.90;;;;;;5066078;28;20279;-66
2022/01/16 08:13:25;;;;;;;23.13;11.50;;;0.80;99.90;;;;;;5054630;28;20584;-66
2022/01/16 08:15:50;;;;;;;29.07;12.13;;;0.80;99.90;;;;;;5065934;28;20612;-66
2022/01/16 08:18:16;;;;;;;22.00;12.27;;;0.80;99.90;;;;;;5051800;28;20193;-66
2022/01/16 08:20:42;;;;;;;19.23;11.33;;;0.90;99.90;;;;;;5064363;28;20199;-66
2022/01/16 08:23:08;;;;;;;20.63;11.43;;;0.90;99.90;;;;;;5062668;28;20203;-65
2022/01/16 08:25:33;;;;;;;18.17;11.33;;;1.00;99.90;;;;;;5064950;28;20648;-66
2022/01/16 08:27:59;;;;;;;28.57;14.53;;;1.00;99.90;;;;;;5063056;28;20204;-66
2022/01/16 08:30:24;;;;;;;24.40;13.00;;;1.00;99.90;;;;;;5064887;28;20205;-65
2022/01/16 08:32:50;;;;;;;25.53;12.87;;;1.00;99.90;;;;;;5063412;28;20215;-65
2022/01/16 08:35:15;;;;;;;15.73;11.30;;;1.10;99.90;;;;;;5064350;28;20198;-65
2022/01/16 08:37:41;;;;;;;18.00;11.40;;;1.20;99.90;;;;;;5063673;28;20541;-65
2022/01/16 08:40:07;;;;;;;18.20;11.13;;;1.40;99.90;;;;;;5064183;28;20202;-65
2022/01/16 08:42:35;;;;;;;22.97;12.43;;;1.30;99.90;;;;;;5056357;28;20197;-65
2022/01/16 08:45:01;;;;;;;23.80;13.13;;;1.10;99.90;;;;;;5057967;28;20189;-65
2022/01/16 08:47:28;;;;;;;19.83;13.13;;;1.20;99.90;;;;;;5062884;28;20215;-65
2022/01/16 08:49:53;;;;;;;21.03;12.80;;;1.30;99.90;;;;;;5049704;28;20193;-66
2022/01/16 08:52:21;;;;;;;17.43;11.53;;;1.30;99.90;;;;;;5063676;28;20198;-65
2022/01/16 08:54:47;;;;;;;16.97;12.10;;;1.40;99.90;;;;;;5050515;28;20319;-67
2022/01/16 08:57:12;;;;;;;23.03;11.93;;;1.50;99.90;;;;;;5062539;28;20751;-66
2022/01/16 08:59:38;;;;;;;17.90;12.70;;;1.40;99.90;;;;;;5051834;28;20185;-66
2022/01/16 09:02:04;;;;;;;21.47;13.43;;;1.40;99.90;;;;;;5060034;28;20538;-66
2022/01/16 09:04:29;;;;;;;23.50;14.23;;;1.40;99.90;;;;;;5054316;28;20196;-66
2022/01/16 09:06:55;;;;;;;22.27;14.00;;;1.50;99.90;;;;;;5055816;28;20199;-66
2022/01/16 09:09:20;;;;;;;22.83;12.80;;;1.50;99.90;;;;;;5052700;28;20266;-66
2022/01/16 09:11:47;;;;;;;18.80;12.97;;;1.50;99.90;;;;;;5063112;28;20704;-65
2022/01/16 09:14:13;;;;;;;19.93;13.27;;;1.70;99.90;;;;;;5055392;28;20687;-65
2022/01/16 09:16:39;;;;;;;26.73;14.57;;;1.70;99.90;;;;;;5065445;28;20284;-66
2022/01/16 09:19:04;;;;;;;21.50;14.80;;;1.60;99.90;;;;;;5046672;28;20771;-65
2022/01/16 09:21:29;;;;;;;23.00;14.30;;;1.70;99.90;;;;;;5064410;28;20225;-67
2022/01/16 09:23:55;;;;;;;23.27;14.33;;;1.70;99.90;;;;;;5055140;28;20197;-66
2022/01/16 09:26:20;;;;;;;29.40;15.63;;;1.80;99.90;;;;;;5063958;28;20230;-66
2022/01/16 09:28:46;;;;;;;28.57;14.67;;;1.90;99.90;;;;;;5053201;28;20829;-66
2022/01/16 09:31:12;;;;;;;21.53;13.87;;;1.90;99.90;;;;;;5064764;28;20184;-66
2022/01/16 09:33:37;;;;;;;21.07;14.87;;;1.80;99.90;;;;;;5053521;28;20713;-67
2022/01/16 09:36:04;;;;;;;22.93;14.33;;;1.80;99.90;;;;;;5064790;28;20210;-67
2022/01/16 09:38:31;;;;;;;21.93;14.47;;;2.00;99.90;;;;;;5048899;28;20205;-66
2022/01/16 09:40:57;;;;;;;22.17;13.57;;;2.10;99.90;;;;;;5064473;28;20281;-66
2022/01/16 09:43:22;;;;;;;18.90;14.07;;;2.20;99.90;;;;;;5052860;28;20761;-66
2022/01/16 09:45:49;;;;;;;23.37;13.90;;;2.30;99.90;;;;;;5064231;28;20198;-65
2022/01/16 09:48:18;;;;;;;21.17;14.80;;;2.30;99.90;;;;;;5052271;28;20201;-66
2022/01/16 09:50:44;;;;;;;21.63;14.27;;;2.30;99.90;;;;;;5064597;28;20192;-66
2022/01/16 09:53:10;;;;;;;21.00;13.30;;;2.40;99.90;;;;;;5057034;28;20215;-66
2022/01/16 09:55:35;;;;;;;18.87;13.43;;;2.50;99.90;;;;;;5064364;28;20220;-67
2022/01/16 09:58:01;;;;;;;18.80;12.60;;;2.40;99.90;;;;;;5062044;28;20186;-67
2022/01/16 10:00:27;;;;;;;20.90;14.27;;;2.60;99.90;;;;;;5063757;28;20290;-67
2022/01/16 10:02:53;;;;;;;22.90;14.33;;;2.50;99.90;;;;;;5062460;28;20728;-66
2022/01/16 10:05:32;;;;;;;19.40;13.73;;;2.50;99.90;;;;;;5063966;28;20186;-66
2022/01/16 10:08:00;;;;;;;24.23;14.73;;;2.50;99.90;;;;;;5058214;28;20224;-66
2022/01/16 10:10:34;;;;;;;21.00;15.07;;;2.40;99.90;;;;;;5064051;28;20201;-66
2022/01/16 10:13:16;;;;;;;24.33;15.97;;;2.30;99.90;;;;;;5055009;28;20221;-66
2022/01/16 10:15:54;;;;;;;24.17;15.63;;;2.30;99.90;;;;;;5055044;28;20263;-66
2022/01/16 10:18:33;;;;;;;17.47;14.17;;;2.20;99.90;;;;;;5046053;28;20638;-66
2022/01/16 10:20:59;;;;;;;24.63;16.77;;;2.00;99.90;;;;;;5055489;28;20216;-66
2022/01/16 10:23:25;;;;;;;24.77;15.77;;;1.90;99.90;;;;;;5054670;28;20202;-66
2022/01/16 10:25:51;;;;;;;24.37;16.87;;;1.90;99.90;;;;;;5063995;28;20200;-66
2022/01/16 10:28:26;;;;;;;19.13;14.87;;;2.00;99.90;;;;;;5052660;28;20265;-66
2022/01/16 10:30:55;;;;;;;22.13;15.83;;;2.00;99.90;;;;;;5064475;28;20554;-66
2022/01/16 10:33:23;;;;;;;24.50;17.30;;;1.70;99.90;;;;;;5052572;28;20681;-67
2022/01/16 10:35:51;;;;;;;26.90;16.63;;;1.60;99.90;;;;;;5064120;28;20223;-66
2022/01/16 10:38:20;;;;;;;23.23;16.77;;;1.50;99.90;;;;;;5056628;28;20907;-67
2022/01/16 10:40:52;;;;;;;27.90;18.20;;;1.50;99.90;;;;;;5063998;28;20307;-66
2022/01/16 10:43:36;;;;;;;27.80;17.43;;;1.40;99.90;;;;;;5045207;28;20695;-66
2022/01/16 10:46:02;;;;;;;26.37;18.20;;;1.50;99.90;;;;;;5048661;28;20188;-65
2022/01/16 10:48:28;;;;;;;25.67;17.43;;;1.60;99.90;;;;;;5051753;28;20730;-66
2022/01/16 10:50:53;;;;;;;28.77;17.30;;;1.60;99.90;;;;;;5061868;28;20196;-65
2022/01/16 10:53:26;;;;;;;29.20;17.87;;;1.50;99.90;;;;;;5053658;28;20231;-65
2022/01/16 10:55:58;;;;;;;25.07;16.70;;;1.50;99.90;;;;;;5056255;28;20225;-65
2022/01/16 10:58:29;;;;;;;26.00;17.50;;;1.40;99.90;;;;;;5051300;28;20212;-65
2022/01/16 11:01:03;;;;;;;25.60;17.97;;;1.40;99.90;;;;;;5055965;28;20711;-66
2022/01/16 11:03:36;;;;;;;29.87;18.60;;;1.50;99.90;;;;;;5049847;28;20261;-66
2022/01/16 11:06:02;;;;;;;29.47;19.40;;;1.50;99.90;;;;;;5060724;28;20266;-67
2022/01/16 11:08:27;;;;;;;28.57;17.80;;;1.60;99.90;;;;;;5048956;28;20209;-64
2022/01/16 11:10:59;;;;;;;27.60;18.50;;;1.60;99.90;;;;;;5067519;28;20250;-64
2022/01/16 11:13:29;;;;;;;38.20;24.87;;;1.60;99.90;;;;;;5053247;28;20268;-67
2022/01/16 11:15:56;;;;;;;30.77;18.40;;;1.60;99.90;;;;;;5055310;28;20217;-66
2022/01/16 11:18:23;;;;;;;27.20;17.53;;;1.60;99.90;;;;;;5049354;28;20565;-66
2022/01/16 11:23:32;;;;;;;34.43;17.63;;;1.70;99.90;;;;;;5049513;28;20200;-66
2022/01/16 11:26:02;;;;;;;23.20;17.00;;;1.70;99.90;;;;;;5055696;28;20531;-65
2022/01/16 11:28:29;;;;;;;26.90;18.43;;;1.70;99.90;;;;;;5053133;28;20236;-66
2022/01/16 11:31:04;;;;;;;24.77;17.27;;;1.70;99.90;;;;;;5055243;28;20661;-66
2022/01/16 11:33:32;;;;;;;27.60;18.17;;;1.90;99.90;;;;;;5054214;28;20225;-65
2022/01/16 11:36:01;;;;;;;26.00;17.47;;;1.80;99.90;;;;;;5055335;28;20220;-64
2022/01/16 11:38:34;;;;;;;29.80;18.90;;;1.90;99.90;;;;;;5055482;28;20203;-64
2022/01/16 11:41:10;;;;;;;26.43;17.23;;;1.80;99.90;;;;;;5056586;28;20646;-63
2022/01/16 11:43:37;;;;;;;26.83;17.37;;;1.90;99.90;;;;;;5055435;28;20197;-63
2022/01/16 11:46:06;;;;;;;28.60;18.57;;;1.90;99.90;;;;;;5054849;28;20193;-63
2022/01/16 11:48:50;;;;;;;32.97;18.60;;;2.00;99.90;;;;;;5054325;28;20926;-63
2022/01/16 11:51:39;;;;;;;27.10;18.77;;;2.10;99.90;;;;;;5053904;28;20192;-64
2022/01/16 11:54:32;;;;;;;25.87;18.43;;;2.10;99.90;;;;;;5055689;28;20718;-67
2022/01/16 11:57:07;;;;;;;26.73;16.83;;;2.10;99.90;;;;;;5052850;28;20207;-65
2022/01/16 11:59:33;;;;;;;29.03;17.77;;;2.10;99.90;;;;;;5055051;28;20196;-73
2022/01/16 12:02:16;;;;;;;26.07;17.87;;;2.30;99.90;;;;;;5064622;28;20186;-71
2022/01/16 12:04:49;;;;;;;25.93;17.57;;;2.40;99.90;;;;;;5052729;28;20186;-70
2022/01/16 12:07:19;;;;;;;27.13;19.23;;;2.30;99.90;;;;;;5060672;28;20236;-69
2022/01/16 12:12:13;;;;;;;24.67;16.73;;;2.60;99.90;;;;;;5058445;28;20578;-68
2022/01/16 12:14:56;;;;;;;25.20;17.80;;;2.60;99.90;;;;;;5060581;28;20213;-70
2022/01/16 12:17:27;;;;;;;26.10;18.30;;;2.60;99.90;;;;;;5060266;28;20197;-67
2022/01/16 12:19:54;;;;;;;31.37;19.90;;;2.60;99.90;;;;;;5065814;28;20195;-69
2022/01/16 12:22:46;;;;;;;26.27;18.00;;;2.60;99.90;;;;;;5056865;28;20232;-74
2022/01/16 12:25:23;;;;;;;25.67;17.80;;;2.50;99.90;;;;;;5051551;28;20220;-69
2022/01/16 12:28:02;;;;;;;25.93;16.83;;;2.40;99.90;;;;;;5053246;28;20740;-69
2022/01/16 12:30:38;;;;;;;28.27;17.83;;;2.50;99.90;;;;;;5057155;28;20223;-70
2022/01/16 12:33:21;;;;;;;32.80;18.37;;;2.50;99.90;;;;;;5049779;28;20258;-68
2022/01/16 12:35:54;;;;;;;26.77;17.57;;;2.50;99.90;;;;;;5056045;28;20734;-68
2022/01/16 12:38:46;;;;;;;26.27;18.37;;;2.50;99.90;;;;;;5046603;28;20281;-68
2022/01/16 12:41:46;;;;;;;27.80;18.37;;;2.50;99.90;;;;;;5045442;28;20195;-68
2022/01/16 12:44:18;;;;;;;26.70;17.90;;;2.60;99.90;;;;;;5059134;28;20189;-70
2022/01/16 12:46:47;;;;;;;26.80;19.07;;;2.60;99.90;;;;;;5061846;28;20698;-70
2022/01/16 12:49:22;;;;;;;25.37;16.17;;;2.60;99.90;;;;;;5054171;28;20173;-71
2022/01/16 12:51:51;;;;;;;28.27;18.53;;;2.60;99.90;;;;;;5055028;28;20230;-71
2022/01/16 12:54:22;;;;;;;29.33;17.13;;;2.60;99.90;;;;;;5054037;28;20189;-70
2022/01/16 12:56:55;;;;;;;26.80;17.03;;;2.70;99.90;;;;;;5053211;28;20319;-69
2022/01/16 12:59:24;;;;;;;26.87;19.17;;;2.60;99.90;;;;;;5059876;28;20278;-68
2022/01/16 13:01:59;;;;;;;28.60;18.23;;;2.60;99.90;;;;;;5053177;28;20202;-70
2022/01/16 13:04:39;;;;;;;27.93;17.47;;;2.80;99.90;;;;;;5051204;28;20186;-68
2022/01/16 13:07:10;;;;;;;27.50;19.00;;;2.80;99.90;;;;;;5052035;28;20201;-68
2022/01/16 13:09:36;;;;;;;28.53;18.10;;;2.80;99.90;;;;;;5053610;28;20203;-68
2022/01/16 13:12:04;;;;;;;28.67;18.73;;;2.70;99.90;;;;;;5053988;28;20676;-69
2022/01/16 13:14:36;;;;;;;28.70;18.33;;;2.70;99.90;;;;;;5054228;28;20243;-68
2022/01/16 13:17:06;;;;;;;31.13;18.90;;;2.70;99.90;;;;;;5050487;28;20874;-71
2022/01/16 13:22:20;;;;;;;36.87;21.27;;;2.70;99.90;;;;;;5052921;28;20475;-70
2022/01/16 13:24:53;;;;;;;27.60;17.00;;;2.80;99.90;;;;;;5053502;28;20240;-67
2022/01/16 13:27:24;;;;;;;31.10;19.30;;;2.80;99.90;;;;;;5049692;28;20198;-71
2022/01/16 13:29:59;;;;;;;32.07;20.67;;;2.90;99.90;;;;;;5048582;28;20206;-68
2022/01/16 13:32:33;;;;;;;34.37;20.33;;;3.00;99.90;;;;;;5056426;28;20188;-69
2022/01/16 13:34:59;;;;;;;35.03;21.37;;;2.90;99.90;;;;;;5051348;28;20300;-69
2022/01/16 13:37:34;;;;;;;35.93;21.57;;;2.90;99.90;;;;;;5056317;28;20770;-69
2022/01/16 13:40:05;;;;;;;30.67;20.07;;;3.00;99.90;;;;;;5050969;28;20197;-68